createdAt,value
2023-05-15T00:00:28.228Z,1.64
2023-05-15T00:01:28.298Z,1.63
2023-05-15T00:02:28.423Z,1.66
2023-05-15T00:03:28.513Z,1.39
2023-05-15T00:04:28.504Z,1.76
2023-05-15T00:05:28.544Z,1.91
2023-05-15T00:06:28.597Z,1.55
2023-05-15T00:07:28.659Z,1.73
2023-05-15T00:08:28.724Z,1.54
2023-05-15T00:09:28.804Z,1.52
2023-05-15T00:10:28.852Z,1.79
2023-05-15T00:11:28.942Z,1.87
2023-05-15T00:12:28.946Z,1.47
2023-05-15T00:13:29.042Z,1.82
2023-05-15T00:14:29.065Z,1.63
2023-05-15T00:15:29.148Z,1.81
2023-05-15T00:16:29.228Z,1.26
2023-05-15T00:17:29.308Z,1.63
2023-05-15T00:18:29.358Z,1.74
2023-05-15T00:19:29.340Z,1.65
2023-05-15T00:20:29.433Z,1.55
2023-05-15T00:21:29.513Z,1.64
2023-05-15T00:22:29.537Z,1.42
2023-05-15T00:23:29.624Z,1.78
2023-05-15T00:24:29.668Z,1.48
2023-05-15T00:25:29.691Z,1.79
2023-05-15T00:26:29.733Z,1.37
2023-05-15T00:27:29.784Z,1.48
2023-05-15T00:28:29.831Z,1.26
2023-05-15T00:29:29.871Z,1.94
2023-05-15T00:30:29.893Z,1.81
2023-05-15T00:31:29.940Z,1.47
2023-05-15T00:32:30.042Z,2.13
2023-05-15T00:33:30.048Z,1.85
2023-05-15T00:34:30.119Z,1.62
2023-05-15T00:35:30.185Z,1.64
2023-05-15T00:36:30.249Z,1.17
2023-05-15T00:37:30.355Z,1.83
2023-05-15T00:38:30.371Z,1.61
2023-05-15T00:39:30.437Z,1.61
2023-05-15T00:40:30.488Z,1.64
2023-05-15T00:41:30.538Z,1.48
2023-05-15T00:42:30.560Z,1.45
2023-05-15T00:43:30.635Z,1.65
2023-05-15T00:44:30.651Z,1.59
2023-05-15T00:45:30.739Z,1.45
2023-05-15T00:46:30.795Z,1.66
2023-05-15T00:47:30.837Z,1.38
2023-05-15T00:48:30.835Z,1.41
2023-05-15T00:49:30.843Z,1.21
2023-05-15T00:50:30.888Z,1.24
2023-05-15T00:51:30.896Z,1.47
2023-05-15T00:52:31.119Z,1.51
2023-05-15T00:53:31.016Z,1.44
2023-05-15T00:54:31.106Z,1.31
2023-05-15T00:55:31.105Z,1.54
2023-05-15T00:56:31.182Z,1.93
2023-05-15T00:57:31.243Z,1.80
2023-05-15T00:58:31.280Z,2.07
2023-05-15T00:59:31.346Z,1.58
2023-05-15T01:00:31.374Z,1.57
2023-05-15T01:01:31.591Z,1.48
2023-05-15T01:02:31.613Z,1.22
2023-05-15T01:03:31.581Z,1.05
2023-05-15T01:04:31.621Z,1.42
2023-05-15T01:05:31.673Z,1.63
2023-05-15T01:06:31.686Z,1.48
2023-05-15T01:07:31.773Z,1.43
2023-05-15T01:08:31.830Z,1.43
2023-05-15T01:09:31.870Z,1.77
2023-05-15T01:10:31.949Z,1.27
2023-05-15T01:11:32.040Z,1.46
2023-05-15T01:12:32.066Z,1.34
2023-05-15T01:13:32.157Z,1.42
2023-05-15T01:14:32.239Z,1.31
2023-05-15T01:15:32.265Z,1.20
2023-05-15T01:16:32.353Z,1.59
2023-05-15T01:17:32.429Z,1.53
2023-05-15T01:18:32.652Z,1.48
2023-05-15T01:19:32.769Z,1.24
2023-05-15T01:20:32.569Z,1.44
2023-05-15T01:21:32.610Z,1.32
2023-05-15T01:22:32.679Z,1.19
2023-05-15T01:23:32.732Z,1.52
2023-05-15T01:24:32.785Z,1.40
2023-05-15T01:25:32.849Z,1.61
2023-05-15T01:26:32.889Z,1.45
2023-05-15T01:27:32.922Z,1.19
2023-05-15T01:28:33.028Z,1.37
2023-05-15T01:29:33.027Z,1.64
2023-05-15T01:30:33.118Z,1.34
2023-05-15T01:31:33.189Z,1.20
2023-05-15T01:32:33.221Z,1.68
2023-05-15T01:33:33.280Z,1.22
2023-05-15T01:34:33.374Z,1.81
2023-05-15T01:35:33.416Z,1.55
2023-05-15T01:36:33.450Z,1.50
2023-05-15T01:37:33.518Z,1.27
2023-05-15T01:38:33.580Z,1.62
2023-05-15T01:39:33.623Z,1.40
2023-05-15T01:40:33.686Z,1.36
2023-05-15T01:41:33.756Z,0.86
2023-05-15T01:42:33.839Z,1.24
2023-05-15T01:43:33.884Z,1.60
2023-05-15T01:44:33.935Z,1.27
2023-05-15T01:45:34.027Z,1.22
2023-05-15T01:46:34.057Z,1.28
2023-05-15T01:47:34.106Z,1.56
2023-05-15T01:48:34.123Z,1.72
2023-05-15T01:49:34.161Z,1.48
2023-05-15T01:50:34.243Z,1.24
2023-05-15T01:51:34.293Z,1.51
2023-05-15T01:52:34.331Z,1.64
2023-05-15T01:53:34.408Z,1.22
2023-05-15T01:54:34.448Z,1.41
2023-05-15T01:55:34.538Z,1.65
2023-05-15T01:56:34.571Z,1.29
2023-05-15T01:57:34.610Z,1.18
2023-05-15T01:58:34.662Z,1.31
2023-05-15T01:59:34.735Z,1.30
2023-05-15T02:00:34.765Z,1.07
2023-05-15T02:01:34.841Z,1.33
2023-05-15T02:02:34.947Z,1.20
2023-05-15T02:03:34.937Z,1.39
2023-05-15T02:04:34.927Z,1.38
2023-05-15T02:05:35.033Z,1.08
2023-05-15T02:06:35.041Z,1.29
2023-05-15T02:07:35.096Z,1.38
2023-05-15T02:08:35.155Z,1.42
2023-05-15T02:09:35.200Z,1.28
2023-05-15T02:10:35.245Z,1.16
2023-05-15T02:11:35.307Z,1.18
2023-05-15T02:12:35.353Z,1.40
2023-05-15T02:13:35.378Z,1.05
2023-05-15T02:14:35.448Z,1.19
2023-05-15T02:15:35.477Z,1.31
2023-05-15T02:16:35.602Z,1.46
2023-05-15T02:17:35.649Z,1.18
2023-05-15T02:18:35.651Z,1.28
2023-05-15T02:19:35.689Z,1.24
2023-05-15T02:20:35.737Z,1.13
2023-05-15T02:21:35.833Z,1.67
2023-05-15T02:22:35.869Z,1.17
2023-05-15T02:23:35.912Z,1.24
2023-05-15T02:24:35.973Z,1.37
2023-05-15T02:25:36.010Z,1.23
2023-05-15T02:26:36.037Z,1.29
2023-05-15T02:27:36.096Z,1.18
2023-05-15T02:28:36.088Z,1.28
2023-05-15T02:29:36.174Z,1.22
2023-05-15T02:30:36.224Z,1.11
2023-05-15T02:31:36.284Z,1.48
2023-05-15T02:32:36.391Z,1.53
2023-05-15T02:33:36.416Z,0.83
2023-05-15T02:34:36.456Z,1.26
2023-05-15T02:35:36.489Z,1.08
2023-05-15T02:36:36.584Z,1.54
2023-05-15T02:37:36.641Z,1.23
2023-05-15T02:38:36.713Z,1.08
2023-05-15T02:39:36.778Z,1.30
2023-05-15T02:40:36.823Z,1.03
2023-05-15T02:41:36.876Z,1.22
2023-05-15T02:42:36.945Z,1.28
2023-05-15T02:43:37.015Z,1.08
2023-05-15T02:44:37.042Z,1.38
2023-05-15T02:45:37.118Z,1.14
2023-05-15T02:46:37.170Z,1.32
2023-05-15T02:47:37.328Z,0.96
2023-05-15T02:48:37.257Z,1.27
2023-05-15T02:49:37.283Z,1.31
2023-05-15T02:50:37.365Z,1.43
2023-05-15T02:51:37.373Z,0.99
2023-05-15T02:52:37.379Z,1.02
2023-05-15T02:53:37.459Z,1.11
2023-05-15T02:54:37.472Z,1.34
2023-05-15T02:55:37.514Z,0.97
2023-05-15T02:56:37.533Z,1.09
2023-05-15T02:57:37.576Z,1.25
2023-05-15T02:58:37.575Z,1.54
2023-05-15T02:59:37.609Z,1.20
2023-05-15T03:00:37.611Z,0.85
2023-05-15T03:01:37.744Z,0.89
2023-05-15T03:02:37.710Z,1.09
2023-05-15T03:03:37.700Z,0.99
2023-05-15T03:04:37.742Z,1.10
2023-05-15T03:05:37.709Z,0.95
2023-05-15T03:06:37.708Z,0.84
2023-05-15T03:07:37.676Z,1.30
2023-05-15T03:08:37.729Z,1.13
2023-05-15T03:09:37.739Z,1.00
2023-05-15T03:10:37.719Z,0.71
2023-05-15T03:11:37.756Z,0.98
2023-05-15T03:12:37.736Z,0.92
2023-05-15T03:13:37.750Z,1.06
2023-05-15T03:14:37.755Z,1.22
2023-05-15T03:15:37.745Z,1.37
2023-05-15T03:16:37.787Z,0.83
2023-05-15T03:17:37.871Z,0.96
2023-05-15T03:18:37.769Z,1.13
2023-05-15T03:19:37.769Z,0.88
2023-05-15T03:20:37.758Z,0.95
2023-05-15T03:21:37.757Z,1.02
2023-05-15T03:22:37.790Z,1.24
2023-05-15T03:23:38.208Z,1.11
2023-05-15T03:24:37.785Z,0.88
2023-05-15T03:25:37.748Z,0.99
2023-05-15T03:26:38.441Z,0.84
2023-05-15T03:27:37.759Z,1.19
2023-05-15T03:28:37.791Z,0.92
2023-05-15T03:29:37.777Z,1.11
2023-05-15T03:30:37.799Z,1.16
2023-05-15T03:31:37.804Z,1.07
2023-05-15T03:32:37.810Z,0.91
2023-05-15T03:33:37.799Z,1.12
2023-05-15T03:34:39.117Z,1.16
2023-05-15T03:35:37.890Z,0.76
2023-05-15T03:36:37.920Z,1.13
2023-05-15T03:37:37.897Z,1.02
2023-05-15T03:38:37.908Z,1.44
2023-05-15T03:39:37.931Z,1.23
2023-05-15T03:40:37.928Z,1.11
2023-05-15T03:41:37.927Z,1.03
2023-05-15T03:42:37.942Z,0.94
2023-05-15T03:43:37.942Z,0.94
2023-05-15T03:44:37.940Z,1.03
2023-05-15T03:45:37.964Z,1.18
2023-05-15T03:46:38.000Z,1.04
2023-05-15T03:47:37.976Z,1.00
2023-05-15T03:48:37.966Z,0.90
2023-05-15T03:49:37.948Z,1.18
2023-05-15T03:50:38.085Z,0.89
2023-05-15T03:51:37.995Z,1.09
2023-05-15T03:52:39.539Z,1.18
2023-05-15T03:53:38.001Z,0.79
2023-05-15T03:54:37.997Z,0.85
2023-05-15T03:55:38.041Z,1.10
2023-05-15T03:56:38.068Z,0.99
2023-05-15T03:57:38.071Z,0.90
2023-05-15T03:58:38.036Z,1.23
2023-05-15T03:59:38.062Z,0.95
2023-05-15T04:00:38.069Z,0.91
2023-05-15T04:01:50.339Z,0.96
2023-05-15T04:02:39.091Z,1.25
2023-05-15T04:03:38.146Z,1.01
2023-05-15T04:04:38.164Z,0.99
2023-05-15T04:05:38.098Z,1.15
2023-05-15T04:06:38.028Z,0.94
2023-05-15T04:07:38.087Z,0.99
2023-05-15T04:08:39.210Z,0.91
2023-05-15T04:09:38.044Z,1.32
2023-05-15T04:10:38.005Z,0.63
2023-05-15T04:11:38.072Z,1.00
2023-05-15T04:12:38.011Z,0.97
2023-05-15T04:13:37.997Z,0.78
2023-05-15T04:14:38.058Z,1.03
2023-05-15T04:15:38.004Z,1.12
2023-05-15T04:16:38.012Z,0.80
2023-05-15T04:17:38.029Z,0.88
2023-05-15T04:18:37.999Z,1.19
2023-05-15T04:19:37.993Z,0.89
2023-05-15T04:20:37.998Z,1.08
2023-05-15T04:21:38.004Z,0.92
2023-05-15T04:22:38.038Z,1.09
2023-05-15T04:23:38.012Z,0.98
2023-05-15T04:24:37.973Z,1.19
2023-05-15T04:25:37.987Z,1.04
2023-05-15T04:26:38.016Z,1.15
2023-05-15T04:27:37.993Z,0.88
2023-05-15T04:28:38.007Z,1.16
2023-05-15T04:29:38.015Z,1.29
2023-05-15T04:30:37.987Z,1.10
2023-05-15T04:31:38.066Z,1.06
2023-05-15T04:32:38.124Z,0.86
2023-05-15T04:33:38.097Z,1.15
2023-05-15T04:34:38.122Z,0.91
2023-05-15T04:35:38.170Z,0.80
2023-05-15T04:36:38.843Z,1.03
2023-05-15T04:37:38.280Z,0.87
2023-05-15T04:38:38.302Z,0.86
2023-05-15T04:39:38.301Z,1.02
2023-05-15T04:40:38.323Z,1.01
2023-05-15T04:41:38.327Z,1.06
2023-05-15T04:42:39.235Z,1.02
2023-05-15T04:43:39.417Z,0.88
2023-05-15T04:44:38.425Z,1.15
2023-05-15T04:45:38.405Z,1.09
2023-05-15T04:46:38.436Z,1.14
2023-05-15T04:47:38.521Z,1.16
2023-05-15T04:48:38.391Z,0.71
2023-05-15T04:49:38.373Z,1.14
2023-05-15T04:50:38.371Z,1.02
2023-05-15T04:51:38.337Z,0.85
2023-05-15T04:52:38.381Z,0.91
2023-05-15T04:53:38.358Z,1.02
2023-05-15T04:54:38.328Z,0.95
2023-05-15T04:55:38.345Z,0.97
2023-05-15T04:56:38.342Z,1.06
2023-05-15T04:57:38.359Z,1.01
2023-05-15T04:58:38.346Z,1.00
2023-05-15T04:59:38.299Z,0.92
2023-05-15T05:00:45.309Z,0.94
2023-05-15T05:01:38.305Z,0.88
2023-05-15T05:02:38.373Z,0.87
2023-05-15T05:03:38.371Z,0.97
2023-05-15T05:04:38.271Z,1.01
2023-05-15T05:05:38.259Z,0.94
2023-05-15T05:06:38.258Z,0.87
2023-05-15T05:07:38.243Z,0.94
2023-05-15T05:08:38.299Z,0.92
2023-05-15T05:09:38.259Z,0.84
2023-05-15T05:10:38.227Z,0.99
2023-05-15T05:11:38.219Z,0.87
2023-05-15T05:12:38.241Z,1.29
2023-05-15T05:13:38.216Z,1.06
2023-05-15T05:14:38.238Z,0.82
2023-05-15T05:15:38.264Z,1.12
2023-05-15T05:16:38.219Z,1.06
2023-05-15T05:17:38.181Z,0.87
2023-05-15T05:18:38.211Z,1.05
2023-05-15T05:19:38.168Z,0.94
2023-05-15T05:20:38.176Z,0.97
2023-05-15T05:21:38.139Z,0.94
2023-05-15T05:22:38.152Z,0.84
2023-05-15T05:23:38.164Z,0.87
2023-05-15T05:24:38.167Z,1.14
2023-05-15T05:25:38.150Z,0.80
2023-05-15T05:26:38.100Z,0.93
2023-05-15T05:27:38.134Z,1.24
2023-05-15T05:28:38.103Z,0.87
2023-05-15T05:29:38.088Z,0.68
2023-05-15T05:30:38.081Z,0.97
2023-05-15T05:31:38.148Z,0.90
2023-05-15T05:32:38.544Z,0.95
2023-05-15T05:33:38.053Z,1.00
2023-05-15T05:34:38.059Z,0.90
2023-05-15T05:35:38.063Z,1.14
2023-05-15T05:36:38.041Z,1.41
2023-05-15T05:37:40.344Z,1.04
2023-05-15T05:38:38.009Z,1.02
2023-05-15T05:39:38.014Z,1.26
2023-05-15T05:40:38.066Z,0.97
2023-05-15T05:41:37.990Z,1.75
2023-05-15T05:42:38.019Z,1.51
2023-05-15T05:43:38.010Z,1.34
2023-05-15T05:44:38.021Z,1.71
2023-05-15T05:45:45.043Z,1.46
2023-05-15T05:46:38.063Z,1.95
2023-05-15T05:47:38.158Z,1.63
2023-05-15T05:48:38.045Z,1.90
2023-05-15T05:49:37.956Z,1.86
2023-05-15T05:50:37.981Z,2.06
2023-05-15T05:51:37.955Z,2.45
2023-05-15T05:52:37.960Z,2.20
2023-05-15T05:53:39.516Z,1.97
2023-05-15T05:54:37.914Z,1.84
2023-05-15T05:55:37.909Z,1.54
2023-05-15T05:56:37.930Z,1.57
2023-05-15T05:57:37.906Z,1.53
2023-05-15T05:58:37.908Z,2.10
2023-05-15T05:59:37.909Z,1.97
2023-05-15T06:00:37.867Z,1.70
2023-05-15T06:01:37.902Z,2.10
2023-05-15T06:02:37.900Z,1.64
2023-05-15T06:03:38.127Z,1.77
2023-05-15T06:04:38.079Z,1.33
2023-05-15T06:05:37.867Z,1.48
2023-05-15T06:06:37.847Z,2.47
2023-05-15T06:07:37.863Z,1.50
2023-05-15T06:08:37.861Z,1.89
2023-05-15T06:09:37.815Z,1.64
2023-05-15T06:10:37.814Z,1.39
2023-05-15T06:11:37.814Z,1.97
2023-05-15T06:12:37.815Z,1.63
2023-05-15T06:13:37.871Z,1.83
2023-05-15T06:14:37.868Z,1.26
2023-05-15T06:15:37.774Z,1.37
2023-05-15T06:16:37.843Z,1.77
2023-05-15T06:17:37.844Z,2.22
2023-05-15T06:18:38.087Z,2.04
2023-05-15T06:19:37.757Z,2.09
2023-05-15T06:20:37.777Z,1.64
2023-05-15T06:21:37.777Z,1.86
2023-05-15T06:22:37.748Z,1.83
2023-05-15T06:23:37.763Z,1.80
2023-05-15T06:24:37.732Z,1.57
2023-05-15T06:25:37.712Z,1.57
2023-05-15T06:26:37.704Z,1.75
2023-05-15T06:27:37.706Z,1.47
2023-05-15T06:28:37.686Z,2.34
2023-05-15T06:29:37.688Z,1.36
2023-05-15T06:30:37.733Z,1.58
2023-05-15T06:31:37.692Z,1.45
2023-05-15T06:32:37.681Z,1.51
2023-05-15T06:33:37.715Z,1.52
2023-05-15T06:34:37.663Z,1.68
2023-05-15T06:35:37.682Z,1.66
2023-05-15T06:36:37.646Z,2.28
2023-05-15T06:37:37.644Z,1.88
2023-05-15T06:38:37.657Z,1.72
2023-05-15T06:39:37.767Z,2.49
2023-05-15T06:40:37.672Z,2.83
2023-05-15T06:41:37.619Z,2.37
2023-05-15T06:42:38.665Z,2.34
2023-05-15T06:43:38.506Z,2.61
2023-05-15T06:44:37.750Z,2.71
2023-05-15T06:45:37.795Z,2.79
2023-05-15T06:46:37.951Z,2.99
2023-05-15T06:47:37.981Z,2.50
2023-05-15T06:48:37.977Z,2.56
2023-05-15T06:49:38.019Z,2.48
2023-05-15T06:50:38.101Z,3.89
2023-05-15T06:51:38.083Z,2.65
2023-05-15T06:52:38.153Z,2.70
2023-05-15T06:53:38.168Z,2.60
2023-05-15T06:54:38.223Z,2.71
2023-05-15T06:55:38.216Z,3.17
2023-05-15T06:56:38.290Z,2.63
2023-05-15T06:57:38.316Z,2.84
2023-05-15T06:58:38.606Z,2.34
2023-05-15T06:59:38.308Z,2.24
2023-05-15T07:00:38.813Z,2.85
2023-05-15T07:01:38.485Z,3.51
2023-05-15T07:02:38.405Z,2.73
2023-05-15T07:03:38.448Z,2.86
2023-05-15T07:04:38.603Z,2.64
2023-05-15T07:05:38.505Z,2.43
2023-05-15T07:06:38.568Z,1.92
2023-05-15T07:07:38.776Z,2.00
2023-05-15T07:08:38.723Z,2.00
2023-05-15T07:09:38.688Z,2.17
2023-05-15T07:10:38.741Z,1.65
2023-05-15T07:11:38.867Z,2.08
2023-05-15T07:12:38.833Z,1.83
2023-05-15T07:13:38.821Z,2.25
2023-05-15T07:14:38.830Z,1.91
2023-05-15T07:15:38.830Z,1.87
2023-05-15T07:16:38.843Z,1.93
2023-05-15T07:17:38.961Z,2.07
2023-05-15T07:18:39.065Z,1.87
2023-05-15T07:19:38.996Z,2.29
2023-05-15T07:20:39.232Z,2.13
2023-05-15T07:21:38.908Z,1.68
2023-05-15T07:22:51.914Z,1.80
2023-05-15T07:23:39.963Z,2.30
2023-05-15T07:24:40.403Z,1.67
2023-05-15T07:25:38.942Z,4.30
2023-05-15T07:26:50.367Z,3.90
2023-05-15T07:27:39.899Z,2.81
2023-05-15T07:28:38.947Z,2.75
2023-05-15T07:29:39.138Z,3.44
2023-05-15T07:30:38.858Z,2.53
2023-05-15T07:31:38.880Z,3.25
2023-05-15T07:32:38.979Z,3.21
2023-05-15T07:33:38.860Z,3.74
2023-05-15T07:34:38.857Z,4.70
2023-05-15T07:35:38.873Z,4.47
2023-05-15T07:36:38.911Z,5.97
2023-05-15T07:37:38.928Z,6.29
2023-05-15T07:38:38.947Z,5.60
2023-05-15T07:39:39.062Z,7.06
2023-05-15T07:40:38.999Z,6.57
2023-05-15T07:41:39.026Z,4.97
2023-05-15T07:42:39.090Z,5.05
2023-05-15T07:43:39.074Z,6.64
2023-05-15T07:44:39.614Z,4.56
2023-05-15T07:45:39.190Z,5.03
2023-05-15T07:46:39.261Z,5.36
2023-05-15T07:47:39.277Z,3.97
2023-05-15T07:48:39.286Z,3.71
2023-05-15T07:49:39.651Z,4.41
2023-05-15T07:50:39.267Z,4.54
2023-05-15T07:51:39.272Z,3.41
2023-05-15T07:52:39.322Z,3.91
2023-05-15T07:53:39.349Z,3.36
2023-05-15T07:54:39.637Z,2.67
2023-05-15T07:55:39.460Z,2.33
2023-05-15T07:56:39.486Z,2.96
2023-05-15T07:57:39.592Z,2.50
2023-05-15T07:58:39.648Z,2.67
2023-05-15T07:59:39.639Z,2.76
2023-05-15T08:00:39.655Z,2.79
2023-05-15T08:01:39.721Z,2.86
2023-05-15T08:02:39.795Z,2.89
2023-05-15T08:03:39.833Z,3.02
2023-05-15T08:04:39.893Z,2.43
2023-05-15T08:05:39.757Z,2.55
2023-05-15T08:06:39.903Z,2.72
2023-05-15T08:07:39.854Z,3.32
2023-05-15T08:08:39.966Z,2.65
2023-05-15T08:09:39.972Z,2.99
2023-05-15T08:10:39.964Z,2.75
2023-05-15T08:11:40.036Z,1.68
2023-05-15T08:12:40.076Z,2.28
2023-05-15T08:13:40.107Z,2.55
2023-05-15T08:14:40.331Z,2.36
2023-05-15T08:15:40.276Z,2.78
2023-05-15T08:16:40.260Z,2.38
2023-05-15T08:17:40.418Z,2.95
2023-05-15T08:18:40.449Z,2.48
2023-05-15T08:19:40.423Z,2.81
2023-05-15T08:20:40.505Z,2.51
2023-05-15T08:21:40.515Z,2.77
2023-05-15T08:22:40.648Z,1.92
2023-05-15T08:23:40.629Z,2.37
2023-05-15T08:24:40.852Z,2.25
2023-05-15T08:25:40.693Z,4.36
2023-05-15T08:26:40.709Z,2.27
2023-05-15T08:27:40.881Z,3.16
2023-05-15T08:28:40.791Z,3.02
2023-05-15T08:29:40.879Z,2.37
2023-05-15T08:30:40.878Z,2.61
2023-05-15T08:31:41.053Z,2.85
2023-05-15T08:32:40.959Z,3.36
2023-05-15T08:33:40.944Z,2.23
2023-05-15T08:34:41.027Z,2.32
2023-05-15T08:35:41.123Z,2.01
2023-05-15T08:36:41.106Z,2.00
2023-05-15T08:37:41.139Z,2.17
2023-05-15T08:38:41.186Z,1.69
2023-05-15T08:39:41.266Z,1.78
2023-05-15T08:40:41.395Z,1.86
2023-05-15T08:41:41.383Z,2.16
2023-05-15T08:42:41.405Z,1.54
2023-05-15T08:43:41.452Z,1.92
2023-05-15T08:44:41.638Z,1.81
2023-05-15T08:45:41.608Z,1.93
2023-05-15T08:46:41.715Z,1.66
2023-05-15T08:47:41.771Z,1.73
2023-05-15T08:48:41.810Z,1.61
2023-05-15T08:49:42.371Z,1.61
2023-05-15T08:50:41.894Z,1.88
2023-05-15T08:51:41.952Z,1.56
2023-05-15T08:52:41.975Z,1.55
2023-05-15T08:53:41.963Z,1.58
2023-05-15T08:54:42.172Z,2.47
2023-05-15T08:55:42.019Z,2.14
2023-05-15T08:56:41.960Z,2.00
2023-05-15T08:57:42.038Z,1.60
2023-05-15T08:58:42.054Z,1.68
2023-05-15T08:59:42.149Z,1.64
2023-05-15T09:00:42.109Z,1.62
2023-05-15T09:01:42.248Z,1.34
2023-05-15T09:02:42.241Z,1.35
2023-05-15T09:03:42.265Z,1.75
2023-05-15T09:04:42.715Z,1.36
2023-05-15T09:05:42.182Z,2.51
2023-05-15T09:06:42.206Z,1.42
2023-05-15T09:07:42.244Z,1.48
2023-05-15T09:08:42.204Z,1.84
2023-05-15T09:09:42.199Z,1.30
2023-05-15T09:10:42.219Z,1.35
2023-05-15T09:11:42.314Z,1.67
2023-05-15T09:12:42.247Z,1.48
2023-05-15T09:13:42.279Z,1.41
2023-05-15T09:14:42.389Z,1.33
2023-05-15T09:15:42.367Z,1.52
2023-05-15T09:16:42.315Z,1.69
2023-05-15T09:17:42.301Z,1.73
2023-05-15T09:18:42.310Z,1.72
2023-05-15T09:19:42.368Z,1.43
2023-05-15T09:20:42.311Z,1.53
2023-05-15T09:21:42.303Z,2.21
2023-05-15T09:22:42.300Z,1.69
2023-05-15T09:23:42.396Z,2.07
2023-05-15T09:24:42.411Z,1.87
2023-05-15T09:25:42.351Z,1.69
2023-05-15T09:26:42.334Z,1.45
2023-05-15T09:27:42.345Z,1.82
2023-05-15T09:28:42.452Z,2.35
2023-05-15T09:29:42.372Z,1.97
2023-05-15T09:30:42.669Z,1.65
2023-05-15T09:31:42.422Z,1.69
2023-05-15T09:32:42.449Z,1.75
2023-05-15T09:33:42.483Z,1.83
2023-05-15T09:34:42.461Z,1.76
2023-05-15T09:35:42.481Z,1.56
2023-05-15T09:36:42.482Z,1.54
2023-05-15T09:37:42.486Z,1.78
2023-05-15T09:38:42.486Z,2.13
2023-05-15T09:39:42.497Z,2.24
2023-05-15T09:40:42.699Z,2.47
2023-05-15T09:41:42.612Z,2.84
2023-05-15T09:42:42.508Z,3.06
2023-05-15T09:43:42.523Z,2.99
2023-05-15T09:44:42.468Z,3.07
2023-05-15T09:45:42.541Z,3.42
2023-05-15T09:46:42.651Z,3.86
2023-05-15T09:47:42.701Z,2.94
2023-05-15T09:48:42.716Z,3.02
2023-05-15T09:49:42.688Z,3.13
2023-05-15T09:50:43.187Z,3.41
2023-05-15T09:51:42.785Z,3.63
2023-05-15T09:52:42.736Z,3.56
2023-05-15T09:53:42.794Z,4.08
2023-05-15T09:54:42.892Z,3.92
2023-05-15T09:55:42.793Z,3.80
2023-05-15T09:56:42.791Z,3.89
2023-05-15T09:57:42.820Z,3.94
2023-05-15T09:58:42.806Z,4.54
2023-05-15T09:59:42.876Z,4.05
2023-05-15T10:00:48.726Z,4.41
2023-05-15T10:01:43.895Z,4.23
2023-05-15T10:02:42.911Z,3.76
2023-05-15T10:03:42.815Z,2.94
2023-05-15T10:04:42.866Z,3.10
2023-05-15T10:05:43.956Z,2.90
2023-05-15T10:06:43.479Z,3.34
2023-05-15T10:07:43.014Z,3.31
2023-05-15T10:08:43.155Z,3.58
2023-05-15T10:09:43.108Z,3.27
2023-05-15T10:10:43.204Z,3.25
2023-05-15T10:11:43.203Z,2.56
2023-05-15T10:12:43.226Z,2.92
2023-05-15T10:13:43.282Z,2.95
2023-05-15T10:14:43.328Z,3.17
2023-05-15T10:15:43.400Z,3.24
2023-05-15T10:16:43.449Z,4.23
2023-05-15T10:17:43.452Z,3.85
2023-05-15T10:18:43.494Z,3.09
2023-05-15T10:19:56.499Z,2.75
2023-05-15T10:20:44.558Z,3.00
2023-05-15T10:21:43.483Z,3.20
2023-05-15T10:22:43.453Z,2.59
2023-05-15T10:23:43.468Z,2.98
2023-05-15T10:24:43.458Z,3.54
2023-05-15T10:25:43.466Z,3.19
2023-05-15T10:26:43.473Z,3.04
2023-05-15T10:27:43.505Z,4.17
2023-05-15T10:28:44.914Z,3.15
2023-05-15T10:29:43.457Z,3.25
2023-05-15T10:30:43.701Z,3.29
2023-05-15T10:31:43.618Z,3.55
2023-05-15T10:32:43.686Z,3.54
2023-05-15T10:33:43.685Z,3.01
2023-05-15T10:34:43.714Z,3.88
2023-05-15T10:35:43.798Z,4.29
2023-05-15T10:36:43.828Z,5.22
2023-05-15T10:37:43.917Z,4.70
2023-05-15T10:38:43.926Z,5.21
2023-05-15T10:39:43.934Z,5.04
2023-05-15T10:40:43.966Z,4.86
2023-05-15T10:41:44.027Z,5.13
2023-05-15T10:42:44.065Z,4.36
2023-05-15T10:43:44.077Z,3.73
2023-05-15T10:44:44.092Z,4.07
2023-05-15T10:45:44.084Z,4.60
2023-05-15T10:46:44.119Z,3.54
2023-05-15T10:47:44.175Z,3.83
2023-05-15T10:48:44.121Z,3.24
2023-05-15T10:49:45.065Z,3.37
2023-05-15T10:50:44.212Z,2.68
2023-05-15T10:51:44.018Z,3.36
2023-05-15T10:52:44.033Z,3.53
2023-05-15T10:53:44.044Z,3.14
2023-05-15T10:54:44.011Z,2.88
2023-05-15T10:55:44.252Z,3.05
2023-05-15T10:56:43.997Z,2.91
2023-05-15T10:57:44.020Z,2.85
2023-05-15T10:58:44.011Z,2.13
2023-05-15T10:59:44.111Z,2.53
2023-05-15T11:00:44.198Z,2.60
2023-05-15T11:01:44.196Z,2.61
2023-05-15T11:02:44.173Z,2.66
2023-05-15T11:03:49.158Z,2.63
2023-05-15T11:04:45.167Z,2.47
2023-05-15T11:05:44.169Z,2.32
2023-05-15T11:06:44.161Z,2.07
2023-05-15T11:07:44.126Z,2.52
2023-05-15T11:08:44.132Z,2.41
2023-05-15T11:09:44.092Z,2.78
2023-05-15T11:10:44.246Z,2.26
2023-05-15T11:11:44.103Z,2.27
2023-05-15T11:12:44.063Z,1.92
2023-05-15T11:13:44.068Z,2.43
2023-05-15T11:14:44.091Z,2.64
2023-05-15T11:15:44.762Z,1.75
2023-05-15T11:16:44.087Z,1.75
2023-05-15T11:17:44.088Z,1.71
2023-05-15T11:18:44.046Z,2.09
2023-05-15T11:19:44.011Z,1.73
2023-05-15T11:20:44.028Z,2.07
2023-05-15T11:21:44.232Z,1.77
2023-05-15T11:22:44.030Z,1.38
2023-05-15T11:23:44.034Z,1.41
2023-05-15T11:24:44.012Z,1.65
2023-05-15T11:25:44.023Z,1.88
2023-05-15T11:26:44.015Z,1.66
2023-05-15T11:27:44.066Z,2.29
2023-05-15T11:28:44.107Z,2.42
2023-05-15T11:29:44.092Z,1.76
2023-05-15T11:30:44.475Z,2.11
2023-05-15T11:31:44.270Z,1.96
2023-05-15T11:32:44.255Z,2.31
2023-05-15T11:33:44.277Z,1.99
2023-05-15T11:34:44.415Z,2.00
2023-05-15T11:35:44.389Z,2.35
2023-05-15T11:36:44.740Z,1.73
2023-05-15T11:37:44.462Z,1.86
2023-05-15T11:38:44.518Z,1.93
2023-05-15T11:39:44.565Z,1.81
2023-05-15T11:40:44.606Z,2.05
2023-05-15T11:41:44.671Z,1.73
2023-05-15T11:42:45.725Z,1.96
2023-05-15T11:43:44.893Z,1.65
2023-05-15T11:44:44.859Z,2.20
2023-05-15T11:45:44.899Z,1.59
2023-05-15T11:46:45.025Z,2.27
2023-05-15T11:47:45.063Z,1.75
2023-05-15T11:48:45.095Z,2.08
2023-05-15T11:49:45.108Z,1.66
2023-05-15T11:50:45.146Z,1.74
2023-05-15T11:51:45.218Z,1.89
2023-05-15T11:52:45.269Z,1.90
2023-05-15T11:53:45.329Z,2.12
2023-05-15T11:54:45.339Z,1.90
2023-05-15T11:55:45.349Z,1.79
2023-05-15T11:56:45.398Z,1.62
2023-05-15T11:57:45.436Z,2.00
2023-05-15T11:58:45.514Z,2.10
2023-05-15T11:59:45.544Z,2.27
2023-05-15T12:00:45.629Z,2.04
2023-05-15T12:01:45.674Z,1.79
2023-05-15T12:02:45.768Z,1.83
2023-05-15T12:03:45.865Z,1.78
2023-05-15T12:04:45.905Z,2.20
2023-05-15T12:05:57.458Z,2.27
2023-05-15T12:06:46.831Z,2.20
2023-05-15T12:07:45.795Z,1.79
2023-05-15T12:08:45.819Z,2.08
2023-05-15T12:09:45.803Z,1.60
2023-05-15T12:10:45.770Z,1.77
2023-05-15T12:11:45.817Z,1.77
2023-05-15T12:12:45.822Z,2.07
2023-05-15T12:13:45.770Z,1.87
2023-05-15T12:14:45.788Z,1.78
2023-05-15T12:15:45.736Z,2.22
2023-05-15T12:16:45.786Z,2.02
2023-05-15T12:17:45.773Z,1.77
2023-05-15T12:18:45.797Z,1.86
2023-05-15T12:19:45.772Z,2.08
2023-05-15T12:20:46.239Z,2.26
2023-05-15T12:21:45.739Z,1.86
2023-05-15T12:22:45.758Z,2.05
2023-05-15T12:23:56.157Z,2.04
2023-05-15T12:24:46.731Z,2.21
2023-05-15T12:25:45.710Z,2.31
2023-05-15T12:26:45.708Z,1.64
2023-05-15T12:27:45.716Z,2.17
2023-05-15T12:28:45.670Z,2.11
2023-05-15T12:29:45.697Z,2.11
2023-05-15T12:30:45.700Z,1.99
2023-05-15T12:31:45.679Z,1.79
2023-05-15T12:32:45.729Z,2.26
2023-05-15T12:33:45.729Z,2.05
2023-05-15T12:34:45.770Z,1.64
2023-05-15T12:35:45.837Z,1.84
2023-05-15T12:36:45.851Z,2.04
2023-05-15T12:37:45.893Z,1.84
2023-05-15T12:38:45.960Z,1.66
2023-05-15T12:39:46.004Z,1.59
2023-05-15T12:40:46.008Z,1.49
2023-05-15T12:41:47.701Z,1.88
2023-05-15T12:42:46.050Z,1.61
2023-05-15T12:43:46.087Z,1.52
2023-05-15T12:44:46.097Z,1.88
2023-05-15T12:45:46.163Z,1.75
2023-05-15T12:46:46.157Z,1.57
2023-05-15T12:47:46.178Z,1.76
2023-05-15T12:48:46.165Z,1.51
2023-05-15T12:49:46.169Z,1.77
2023-05-15T12:50:46.188Z,1.80
2023-05-15T12:51:46.188Z,1.87
2023-05-15T12:52:46.252Z,1.29
2023-05-15T12:53:46.272Z,1.65
2023-05-15T12:54:46.724Z,1.36
2023-05-15T12:55:46.282Z,1.27
2023-05-15T12:56:46.284Z,1.62
2023-05-15T12:57:46.284Z,1.56
2023-05-15T12:58:46.285Z,1.55
2023-05-15T12:59:46.306Z,1.89
2023-05-15T13:00:46.447Z,1.26
2023-05-15T13:01:46.427Z,1.68
2023-05-15T13:02:46.419Z,1.66
2023-05-15T13:03:46.390Z,1.46
2023-05-15T13:04:46.328Z,1.72
2023-05-15T13:05:46.344Z,1.68
2023-05-15T13:06:47.841Z,1.49
2023-05-15T13:07:46.367Z,1.74
2023-05-15T13:08:47.837Z,1.64
2023-05-15T13:09:46.399Z,1.48
2023-05-15T13:10:46.380Z,1.54
2023-05-15T13:11:46.480Z,1.82
2023-05-15T13:12:46.438Z,1.55
2023-05-15T13:13:46.490Z,1.94
2023-05-15T13:14:46.455Z,1.70
2023-05-15T13:15:46.456Z,2.04
2023-05-15T13:16:46.485Z,1.69
2023-05-15T13:17:46.539Z,1.69
2023-05-15T13:18:46.520Z,1.65